createdAt,value
2016-03-22T00:00:01.764Z,95.31
2016-03-22T00:01:01.783Z,95.31
2016-03-22T00:02:01.786Z,94.93
2016-03-22T00:03:01.819Z,95.12
2016-03-22T00:04:02.026Z,95.41
2016-03-22T00:05:01.840Z,95.12
2016-03-22T00:06:14.596Z,95.7
2016-03-22T00:07:01.862Z,95.79
2016-03-22T00:08:21.100Z,95.79
2016-03-22T00:09:01.913Z,95.7
2016-03-22T00:10:01.932Z,95.6
2016-03-22T00:11:01.919Z,95.51
2016-03-22T00:12:01.938Z,95.41
2016-03-22T00:13:01.972Z,95.41
2016-03-22T00:14:14.710Z,95.6
2016-03-22T00:15:08.277Z,96.08
2016-03-22T00:16:02.042Z,96.08
2016-03-22T00:17:14.765Z,95.79
2016-03-22T00:18:27.738Z,95.6
2016-03-22T00:19:02.066Z,95.31
2016-03-22T00:20:02.084Z,95.41
2016-03-22T00:21:02.087Z,95.22
2016-03-22T00:22:02.136Z,95.12
2016-03-22T00:23:02.138Z,95.41
2016-03-22T00:24:02.141Z,95.22
2016-03-22T00:25:08.443Z,95.7
2016-03-22T00:26:02.178Z,95.41
2016-03-22T00:27:02.212Z,95.31
2016-03-22T00:28:14.967Z,95.31
2016-03-22T00:29:02.248Z,95.98
2016-03-22T00:30:02.241Z,96.74
2016-03-22T00:31:02.269Z,97.78
2016-03-22T00:32:02.287Z,97.78
2016-03-22T00:33:08.574Z,97.78
2016-03-22T00:34:03.730Z,97.12
2016-03-22T00:35:21.532Z,95.89
2016-03-22T00:36:02.344Z,96.08
2016-03-22T00:37:02.347Z,96.45
2016-03-22T00:38:02.365Z,96.17
2016-03-22T00:39:02.400Z,97.41
2016-03-22T00:40:15.140Z,97.69
2016-03-22T00:41:02.436Z,97.83
2016-03-22T00:42:02.438Z,98.02
2016-03-22T00:43:15.194Z,98.54
2016-03-22T00:44:02.476Z,98.3
2016-03-22T00:45:02.509Z,98.92
2016-03-22T00:46:02.512Z,99.02
2016-03-22T00:47:02.531Z,99.77
2016-03-22T00:48:03.159Z,99.82
2016-03-22T00:49:02.567Z,99.68
2016-03-22T00:50:09.448Z,99.99
2016-03-22T00:51:02.588Z,99.99
2016-03-22T00:52:02.606Z,99.99
2016-03-22T00:53:15.361Z,96.78
2016-03-22T00:54:02.642Z,96.88
2016-03-22T00:55:02.506Z,96.88
2016-03-22T00:56:02.726Z,97.64
2016-03-22T00:57:02.698Z,99.26
2016-03-22T00:58:02.700Z,98.4
2016-03-22T00:59:02.734Z,98.4
2016-03-22T01:00:03.346Z,98.68
2016-03-22T01:01:02.787Z,98.87
2016-03-22T01:02:02.774Z,98.59
2016-03-22T01:03:02.807Z,97.45
2016-03-22T01:04:02.811Z,97.07
2016-03-22T01:05:15.582Z,97.92
2016-03-22T01:06:03.472Z,98.54
2016-03-22T01:07:22.071Z,99.3
2016-03-22T01:08:02.868Z,98.54
2016-03-22T01:09:02.886Z,99.39
2016-03-22T01:10:03.108Z,98.92
2016-03-22T01:11:02.907Z,98.73
2016-03-22T01:12:02.941Z,99.39
2016-03-22T01:13:02.944Z,98.54
2016-03-22T01:14:15.716Z,99.77
2016-03-22T01:15:02.997Z,98.73
2016-03-22T01:16:03.046Z,99.11
2016-03-22T01:17:03.002Z,99.99
2016-03-22T01:18:03.020Z,99.99
2016-03-22T01:19:03.054Z,99.99
2016-03-22T01:20:03.056Z,99.99
2016-03-22T01:21:03.106Z,99.99
2016-03-22T01:22:03.078Z,99.99
2016-03-22T01:23:09.396Z,99.99
2016-03-22T01:24:03.131Z,99.99
2016-03-22T01:25:03.133Z,99.99
2016-03-22T01:26:22.373Z,99.99
2016-03-22T01:27:03.185Z,99.99
2016-03-22T01:28:03.187Z,99.99
2016-03-22T01:29:03.206Z,99.99
2016-03-22T01:30:28.899Z,99.99
2016-03-22T01:31:12.808Z,99.99
2016-03-22T01:32:12.795Z,99.99
2016-03-22T01:33:25.641Z,99.99
2016-03-22T01:34:12.847Z,99.99
2016-03-22T01:35:12.850Z,99.99
2016-03-22T01:36:12.868Z,99.99
2016-03-22T01:37:12.964Z,99.99
2016-03-22T01:38:12.904Z,99.99
2016-03-22T01:39:12.939Z,99.99
2016-03-22T01:40:12.941Z,99.99
2016-03-22T01:41:12.944Z,99.99
2016-03-22T01:42:25.712Z,99.99
2016-03-22T01:43:25.699Z,99.99
2016-03-22T01:44:38.655Z,99.99
2016-03-22T01:45:13.032Z,99.99
2016-03-22T01:47:13.037Z,99.99
2016-03-22T01:48:13.073Z,99.99
2016-03-22T01:49:13.075Z,99.99
2016-03-22T01:50:13.109Z,99.99
2016-03-22T01:51:13.112Z,99.99
2016-03-22T01:52:13.333Z,99.99
2016-03-22T01:53:13.148Z,99.99
2016-03-22T01:54:13.182Z,99.99
2016-03-22T01:55:13.169Z,99.99
2016-03-22T01:56:13.203Z,99.99
2016-03-22T01:57:13.202Z,99.99
2016-03-22T01:58:13.191Z,99.99
2016-03-22T01:59:13.197Z,99.99
2016-03-22T02:00:13.217Z,99.99
2016-03-22T02:01:13.221Z,99.99
2016-03-22T02:02:13.213Z,99.99
2016-03-22T02:03:13.242Z,99.99
2016-03-22T02:04:13.240Z,99.99
2016-03-22T02:05:13.253Z,99.99
2016-03-22T02:06:13.282Z,99.99
2016-03-22T02:07:13.281Z,99.99
2016-03-22T02:08:13.298Z,99.99
2016-03-22T02:09:13.298Z,99.99
2016-03-22T02:10:13.315Z,99.99
2016-03-22T02:11:19.614Z,99.99
2016-03-22T02:12:13.333Z,99.99
2016-03-22T02:13:13.366Z,99.99
2016-03-22T02:14:13.383Z,99.99
2016-03-22T02:15:13.386Z,99.99
2016-03-22T02:16:13.419Z,99.99
2016-03-22T02:17:13.437Z,99.99
2016-03-22T02:18:14.940Z,99.99
2016-03-22T02:19:13.442Z,99.99
2016-03-22T02:20:13.492Z,99.99
2016-03-22T02:21:13.464Z,99.99
2016-03-22T02:22:13.497Z,99.99
2016-03-22T02:23:13.516Z,99.99
2016-03-22T02:24:13.519Z,99.99
2016-03-22T02:25:13.536Z,99.99
2016-03-22T02:26:32.774Z,99.99
2016-03-22T02:27:13.574Z,99.99
2016-03-22T02:28:13.576Z,99.99
2016-03-22T02:29:13.594Z,99.99
2016-03-22T02:30:13.618Z,99.99
2016-03-22T02:31:15.042Z,99.99
2016-03-22T02:32:13.638Z,99.99
2016-03-22T02:33:13.657Z,99.99
2016-03-22T02:34:13.675Z,99.99
2016-03-22T02:35:14.304Z,99.99
2016-03-22T02:36:13.712Z,99.99
2016-03-22T02:37:13.729Z,99.99
2016-03-22T02:38:13.748Z,99.99
2016-03-22T02:39:13.751Z,99.99
2016-03-22T02:40:13.784Z,99.99
2016-03-22T02:41:13.788Z,99.99
2016-03-22T02:42:13.790Z,99.99
2016-03-22T02:43:14.433Z,99.99
2016-03-22T02:44:13.859Z,99.99
2016-03-22T02:45:13.845Z,99.99
2016-03-22T02:46:26.675Z,99.99
2016-03-22T02:47:13.881Z,99.99
2016-03-22T02:48:39.556Z,99.99
2016-03-22T02:49:13.919Z,99.99
2016-03-22T02:50:13.937Z,99.99
2016-03-22T02:51:13.939Z,99.99
2016-03-22T02:52:14.020Z,99.99
2016-03-22T02:53:13.977Z,99.99
2016-03-22T02:54:13.994Z,99.99
2016-03-22T02:55:13.997Z,99.99
2016-03-22T02:56:14.047Z,99.99
2016-03-22T02:57:20.316Z,99.99
2016-03-22T02:58:14.052Z,99.99
2016-03-22T02:59:33.274Z,99.99
2016-03-22T03:00:17.135Z,99.99
2016-03-22T03:01:17.216Z,99.99
2016-03-22T03:02:17.172Z,99.99
2016-03-22T03:03:17.206Z,99.99
2016-03-22T03:04:17.209Z,99.99
2016-03-22T03:05:17.212Z,99.99
2016-03-22T03:06:17.230Z,99.99
2016-03-22T03:07:17.248Z,99.99
2016-03-22T03:08:17.298Z,99.99
2016-03-22T03:09:17.285Z,99.99
2016-03-22T03:10:17.303Z,99.99
2016-03-22T03:11:17.321Z,99.99
2016-03-22T03:12:17.449Z,99.99
2016-03-22T03:13:17.358Z,99.99
2016-03-22T03:14:17.392Z,99.99
2016-03-22T03:15:17.364Z,99.99
2016-03-22T03:16:17.381Z,99.99
2016-03-22T03:17:30.151Z,99.99
2016-03-22T03:18:30.184Z,99.99
2016-03-22T03:19:17.421Z,99.99
2016-03-22T03:20:17.456Z,99.99
2016-03-22T03:21:17.473Z,99.99
2016-03-22T03:22:17.475Z,99.99
2016-03-22T03:23:17.510Z,99.99
2016-03-22T03:24:23.794Z,99.99
2016-03-22T03:25:17.530Z,99.99
2016-03-22T03:26:36.831Z,99.99
2016-03-22T03:27:17.568Z,99.99
2016-03-22T03:28:43.257Z,99.99
2016-03-22T03:29:17.652Z,99.99
2016-03-22T03:30:19.044Z,99.99
2016-03-22T03:31:17.625Z,99.99
2016-03-22T03:32:17.674Z,99.99
2016-03-22T03:33:17.662Z,99.99
2016-03-22T03:34:17.665Z,99.99
2016-03-22T03:35:17.683Z,99.99
2016-03-22T03:36:17.701Z,99.99
2016-03-22T03:37:17.751Z,99.99
2016-03-22T03:38:17.754Z,99.99
2016-03-22T03:39:30.491Z,99.99
2016-03-22T03:40:17.774Z,99.99
2016-03-22T03:41:17.808Z,99.99
2016-03-22T03:42:17.812Z,99.99
2016-03-22T03:43:17.814Z,99.99
2016-03-22T03:44:17.848Z,99.99
2016-03-22T03:45:17.866Z,99.99
2016-03-22T03:46:17.869Z,99.99
2016-03-22T03:47:17.872Z,99.99
2016-03-22T03:48:17.906Z,99.99
2016-03-22T03:49:18.517Z,99.99
2016-03-22T03:50:17.925Z,99.99
2016-03-22T03:51:17.945Z,99.99
2016-03-22T03:52:17.963Z,99.99
2016-03-22T03:53:17.997Z,99.99
2016-03-22T03:54:17.984Z,99.99
2016-03-22T03:55:18.018Z,99.99
2016-03-22T03:56:30.755Z,99.99
2016-03-22T03:57:18.102Z,99.99
2016-03-22T03:58:18.072Z,99.99
2016-03-22T03:59:18.075Z,99.99
2016-03-22T04:00:18.078Z,99.99
2016-03-22T04:01:18.112Z,99.99
2016-03-22T04:02:18.130Z,99.99
2016-03-22T04:03:18.133Z,99.99
2016-03-22T04:04:18.167Z,99.99
2016-03-22T04:05:18.185Z,99.99
2016-03-22T04:06:18.204Z,99.99
2016-03-22T04:07:18.191Z,99.99
2016-03-22T04:08:24.474Z,99.99
2016-03-22T04:09:18.227Z,99.99
2016-03-22T04:10:30.979Z,99.99
2016-03-22T04:11:18.248Z,99.99
2016-03-22T04:12:18.282Z,99.99
2016-03-22T04:13:18.910Z,99.99
2016-03-22T04:14:24.569Z,99.99
2016-03-22T04:15:18.306Z,99.99
2016-03-22T04:16:18.340Z,99.99
2016-03-22T04:17:18.358Z,99.99
2016-03-22T04:18:18.376Z,99.99
2016-03-22T04:19:18.395Z,99.99
2016-03-22T04:20:27.960Z,99.99
2016-03-22T04:21:27.995Z,99.99
2016-03-22T04:22:27.997Z,99.99
2016-03-22T04:23:53.686Z,99.99
2016-03-22T04:24:43.847Z,99.99
2016-03-22T04:26:03.270Z,99.99
2016-03-22T04:26:50.320Z,99.99
2016-03-22T04:27:37.619Z,99.96
2016-03-22T04:28:56.841Z,99.87
2016-03-22T04:29:37.656Z,99.99
2016-03-22T04:31:53.536Z,99.99
2016-03-22T04:32:53.492Z,99.99
2016-03-22T04:33:53.511Z,99.99
2016-03-22T04:35:06.279Z,99.96
2016-03-22T04:35:53.563Z,99.99
2016-03-22T04:36:53.581Z,99.99
2016-03-22T04:37:53.568Z,99.96
2016-03-22T04:38:53.618Z,99.99
2016-03-22T04:39:53.449Z,99.99
2016-03-22T04:41:19.313Z,99.96
2016-03-22T04:41:53.642Z,99.99
2016-03-22T04:44:08.773Z,99.99
2016-03-22T04:45:08.728Z,99.99
2016-03-22T04:46:08.730Z,99.99
2016-03-22T04:47:08.749Z,99.99
2016-03-22T04:48:15.020Z,99.99
2016-03-22T04:49:27.976Z,99.99
2016-03-22T04:50:28.087Z,99.99
2016-03-22T04:51:08.806Z,99.99
2016-03-22T04:52:11.922Z,99.99
2016-03-22T04:53:11.924Z,99.99
2016-03-22T04:55:26.960Z,99.99
2016-03-22T04:56:27.151Z,99.99
2016-03-22T04:57:27.169Z,99.99
2016-03-22T04:58:27.188Z,99.87
2016-03-22T04:59:39.924Z,99.99
2016-03-22T05:00:27.224Z,99.58
2016-03-22T05:01:46.430Z,99.49
2016-03-22T05:02:27.244Z,99.39
2016-03-22T05:03:27.263Z,99.58
2016-03-22T05:04:27.281Z,99.58
2016-03-22T05:05:27.425Z,99.99
2016-03-22T05:06:40.052Z,99.99
2016-03-22T05:07:40.071Z,99.99
2016-03-22T05:08:27.355Z,99.99
2016-03-22T05:09:53.107Z,99.99
2016-03-22T05:10:27.376Z,99.99
2016-03-22T05:11:27.394Z,99.96
2016-03-22T05:12:40.146Z,99.99
2016-03-22T05:13:27.415Z,99.99
2016-03-22T05:14:27.434Z,99.99
2016-03-22T05:15:37.076Z,99.96
2016-03-22T05:17:02.752Z,99.99
2016-03-22T05:17:46.660Z,99.99
2016-03-22T05:18:46.663Z,99.99
2016-03-22T05:21:21.156Z,99.99
2016-03-22T05:22:01.937Z,99.99
2016-03-22T05:23:33.255Z,99.99
2016-03-22T05:24:14.585Z,99.99
2016-03-22T05:25:33.791Z,99.58
2016-03-22T05:26:20.841Z,99.77
2016-03-22T05:27:43.500Z,99.68
2016-03-22T05:28:30.550Z,99.68
2016-03-22T05:29:49.755Z,99.58
2016-03-22T05:30:33.680Z,99.91
2016-03-22T05:31:33.682Z,99.77
2016-03-22T05:34:08.110Z,99.39
2016-03-22T05:35:08.127Z,99.44
2016-03-22T05:36:17.696Z,99.44
2016-03-22T05:38:58.633Z,99.44
2016-03-22T05:40:00.264Z,99.01
2016-03-22T05:40:58.663Z,99.3
2016-03-22T05:43:40.156Z,99.16
2016-03-22T05:44:14.518Z,99.26
2016-03-22T05:46:29.695Z,98.73
2016-03-22T05:47:29.713Z,98.78
2016-03-22T05:50:44.784Z,99.58
2016-03-22T05:51:44.819Z,99.44
2016-03-22T05:52:57.571Z,99.11
2016-03-22T05:53:44.855Z,99.58
2016-03-22T05:55:04.170Z,99.11
2016-03-22T05:57:49.584Z,99.2
2016-03-22T05:59:15.074Z,99.11
2016-03-22T05:59:58.980Z,99.44
2016-03-22T06:01:24.657Z,98.54
2016-03-22T06:02:34.223Z,98.3
2016-03-22T06:03:18.132Z,98.4
2016-03-22T06:04:18.134Z,98.02
2016-03-22T06:06:46.343Z,97.74
2016-03-22T06:07:33.580Z,97.55
2016-03-22T06:08:52.786Z,97.17
2016-03-22T06:09:39.882Z,97.45
2016-03-22T06:10:53.073Z,97.36
2016-03-22T06:11:39.919Z,96.41
2016-03-22T06:12:33.686Z,95.98
2016-03-22T06:13:33.675Z,95.22
2016-03-22T06:14:33.677Z,95.41
2016-03-22T06:15:33.711Z,95.41
2016-03-22T06:16:33.729Z,95.03
2016-03-22T06:17:33.732Z,95.22
2016-03-22T06:18:33.765Z,95.22
2016-03-22T06:19:33.768Z,95.22
2016-03-22T06:20:33.787Z,94.74
2016-03-22T06:21:34.008Z,95.03
2016-03-22T06:22:46.558Z,94.84
2016-03-22T06:23:33.841Z,94.74
2016-03-22T06:24:33.844Z,94.84
2016-03-22T06:25:33.863Z,94.18
2016-03-22T06:26:33.881Z,93.51
2016-03-22T06:27:33.899Z,92.9
2016-03-22T06:28:33.917Z,91.09
2016-03-22T06:29:33.936Z,91.28
2016-03-22T06:30:33.938Z,90.71
2016-03-22T06:31:46.707Z,90.23
2016-03-22T06:32:33.991Z,89.28
2016-03-22T06:33:59.790Z,89.33
2016-03-22T06:34:38.074Z,89.33
2016-03-22T06:35:38.092Z,89.52
2016-03-22T06:36:53.299Z,88.67
2016-03-22T06:37:53.317Z,88.95
2016-03-22T06:38:54.007Z,87.9
2016-03-22T06:39:53.384Z,86.95
2016-03-22T06:40:53.372Z,86.43
2016-03-22T06:41:54.015Z,85.95
2016-03-22T06:42:53.517Z,85.66
2016-03-22T06:43:53.428Z,84.81
2016-03-22T06:44:53.430Z,85
2016-03-22T06:46:06.214Z,84.81
2016-03-22T06:46:54.060Z,85.28
2016-03-22T06:48:12.688Z,84.43
2016-03-22T06:48:56.596Z,84.52
2016-03-22T06:49:56.599Z,84.05
2016-03-22T06:50:56.632Z,84
2016-03-22T06:51:56.651Z,83.58
2016-03-22T06:52:56.685Z,83.29
2016-03-22T06:53:56.672Z,81.9
2016-03-22T06:55:03.207Z,81.43
2016-03-22T06:55:56.724Z,81.62
2016-03-22T06:56:56.727Z,81.24
2016-03-22T06:58:09.479Z,82.19
2016-03-22T06:59:03.030Z,80.86
2016-03-22T06:59:56.782Z,80.23
2016-03-22T07:00:56.801Z,78.61
2016-03-22T07:01:56.818Z,77.7
2016-03-22T07:02:56.868Z,78.56
2016-03-22T07:04:03.121Z,78.17
2016-03-22T07:05:03.139Z,78.71
2016-03-22T07:05:56.908Z,80.13
2016-03-22T07:06:56.926Z,81.43
2016-03-22T07:08:03.215Z,82.19
2016-03-22T07:08:56.952Z,83.33
2016-03-22T07:09:56.986Z,82.62
2016-03-22T07:10:57.004Z,83.19
2016-03-22T07:11:57.006Z,83
2016-03-22T07:12:57.057Z,82.91
2016-03-22T07:13:57.137Z,83.86
2016-03-22T07:14:57.094Z,85
2016-03-22T07:15:57.142Z,83.67
2016-03-22T07:17:03.474Z,83.39
2016-03-22T07:18:04.805Z,84.52
2016-03-22T07:18:57.135Z,85.1
2016-03-22T07:19:57.153Z,85.62
2016-03-22T07:20:57.171Z,85.43
2016-03-22T07:21:57.205Z,86
2016-03-22T07:22:57.240Z,87.05
2016-03-22T07:23:57.257Z,87.81
2016-03-22T07:24:57.260Z,88.19
2016-03-22T07:25:57.279Z,88.95
2016-03-22T07:26:57.312Z,88.85
2016-03-22T07:27:57.346Z,88.95
2016-03-22T07:29:10.271Z,88.28
2016-03-22T07:29:58.837Z,88.9
2016-03-22T07:31:16.639Z,88.81
2016-03-22T07:32:10.123Z,88.71
2016-03-22T07:33:23.097Z,88.38
2016-03-22T07:34:10.159Z,88.76
2016-03-22T07:34:57.459Z,89.04
2016-03-22T07:35:57.446Z,88.85
2016-03-22T07:36:57.481Z,89.14
2016-03-22T07:37:57.498Z,88.76
2016-03-22T07:38:57.517Z,88.19
2016-03-22T07:39:58.145Z,88.38
2016-03-22T07:40:58.147Z,87.9
2016-03-22T07:41:57.587Z,87.14
2016-03-22T07:42:57.589Z,86
2016-03-22T07:43:57.703Z,86.29
2016-03-22T07:44:57.627Z,87.19
2016-03-22T07:46:10.395Z,87.28
2016-03-22T07:47:10.398Z,86.33
2016-03-22T07:48:17.028Z,85.86
2016-03-22T07:48:57.731Z,85.66
2016-03-22T07:50:23.409Z,84.66
2016-03-22T07:50:57.737Z,83.14
2016-03-22T07:53:12.991Z,81.47
2016-03-22T07:54:13.166Z,80.04
2016-03-22T07:55:25.765Z,81.66
2016-03-22T07:56:13.109Z,80.71
2016-03-22T07:57:13.065Z,80.71
2016-03-22T07:58:13.099Z,80.52
2016-03-22T07:59:19.448Z,80.23
2016-03-22T08:00:13.198Z,82.99
2016-03-22T08:01:13.170Z,81.85
2016-03-22T08:02:13.235Z,82.23
2016-03-22T08:03:13.237Z,80.71
2016-03-22T08:04:13.240Z,81.85
2016-03-22T08:05:13.399Z,81.56
2016-03-22T08:06:13.230Z,82.23
2016-03-22T08:07:13.452Z,80.86
2016-03-22T08:08:19.535Z,81.47
2016-03-22T08:09:13.426Z,80.71
2016-03-22T08:10:13.303Z,80.9
2016-03-22T08:11:13.494Z,80.8
2016-03-22T08:12:13.325Z,79.94
2016-03-22T08:13:26.158Z,81.18
2016-03-22T08:14:13.377Z,80.04
2016-03-22T08:15:13.411Z,79.94
2016-03-22T08:16:13.428Z,80.71
2016-03-22T08:17:13.447Z,80.13
2016-03-22T08:18:26.281Z,80.71
2016-03-22T08:19:13.469Z,80.38
2016-03-22T08:20:39.192Z,80.99
2016-03-22T08:21:23.085Z,80.8
2016-03-22T08:22:23.105Z,81.43
2016-03-22T08:23:23.138Z,80.42
2016-03-22T08:24:23.188Z,80.8
2016-03-22T08:25:23.174Z,79.09
2016-03-22T08:26:23.162Z,80.13
2016-03-22T08:27:23.196Z,81.28
2016-03-22T08:28:23.214Z,80.9
2016-03-22T08:29:23.249Z,80.23
2016-03-22T08:30:29.516Z,81.66
2016-03-22T08:31:23.284Z,80.66
2016-03-22T08:32:42.506Z,80.76
2016-03-22T08:33:23.415Z,80.66
2016-03-22T08:34:23.433Z,82.09
2016-03-22T08:35:23.654Z,82.76
2016-03-22T08:36:23.469Z,80.76
2016-03-22T08:37:23.613Z,80.47
2016-03-22T08:38:29.740Z,81.52
2016-03-22T08:39:23.462Z,80.57
2016-03-22T08:40:23.465Z,80.47
2016-03-22T08:41:23.577Z,79.91
2016-03-22T08:42:23.501Z,80.29
2016-03-22T08:43:36.348Z,81.24
2016-03-22T08:44:23.539Z,82.23
2016-03-22T08:45:23.556Z,80.04
2016-03-22T08:46:23.574Z,80.04
2016-03-22T08:47:25.000Z,80.9
2016-03-22T08:48:23.627Z,81.47
2016-03-22T08:49:23.645Z,79.94
2016-03-22T08:50:23.695Z,80.04
2016-03-22T08:51:23.682Z,79.94
2016-03-22T08:52:36.278Z,80.13
2016-03-22T08:53:23.702Z,79.85
2016-03-22T08:54:23.738Z,80.23
2016-03-22T08:55:24.349Z,80.9
2016-03-22T08:56:36.492Z,78.8
2016-03-22T08:57:23.792Z,78.71
2016-03-22T08:58:23.810Z,79.94
2016-03-22T08:59:36.563Z,79.19
2016-03-22T09:00:24.519Z,79.66
2016-03-22T09:01:23.882Z,80.71
2016-03-22T09:02:23.899Z,80.13
2016-03-22T09:03:23.901Z,80.33
2016-03-22T09:04:23.935Z,80.66
2016-03-22T09:05:23.954Z,79.52
2016-03-22T09:06:23.957Z,80.29
2016-03-22T09:07:36.737Z,80
2016-03-22T09:08:30.272Z,80.19
2016-03-22T09:09:24.025Z,80.47
2016-03-22T09:10:24.042Z,80.19
2016-03-22T09:11:24.077Z,79.05
2016-03-22T09:12:30.330Z,80
2016-03-22T09:13:24.114Z,80
2016-03-22T09:14:24.131Z,80.1
2016-03-22T09:15:24.134Z,79.33
2016-03-22T09:16:24.261Z,79.62
2016-03-22T09:17:24.202Z,79.05
2016-03-22T09:18:24.235Z,80
2016-03-22T09:19:24.442Z,80.76
2016-03-22T09:20:24.241Z,80.19
2016-03-22T09:21:43.462Z,78.96
2016-03-22T09:22:27.371Z,82.09
2016-03-22T09:23:27.374Z,81.9
2016-03-22T09:24:27.393Z,80.66
2016-03-22T09:25:33.707Z,80.04
2016-03-22T09:26:27.446Z,80.13
2016-03-22T09:27:40.182Z,79.85
2016-03-22T09:28:27.481Z,79.09
2016-03-22T09:29:27.500Z,78.04
2016-03-22T09:30:33.768Z,78.23
2016-03-22T09:31:40.256Z,78.71
2016-03-22T09:32:27.570Z,78.14
2016-03-22T09:33:27.417Z,78.37
2016-03-22T09:34:27.607Z,78.08
2016-03-22T09:35:27.609Z,77.89
2016-03-22T09:36:40.410Z,77.8
2016-03-22T09:37:27.647Z,77.7
2016-03-22T09:38:27.711Z,75.32
2016-03-22T09:39:27.698Z,74.75
2016-03-22T09:40:27.701Z,74.37
2016-03-22T09:41:29.158Z,75.99
2016-03-22T09:42:27.753Z,75.32
2016-03-22T09:43:40.506Z,73.32
2016-03-22T09:44:27.805Z,73.41
2016-03-22T09:45:27.840Z,73.51
2016-03-22T09:46:27.842Z,73.03
2016-03-22T09:47:27.845Z,74.27
2016-03-22T09:48:27.879Z,73.03
2016-03-22T09:49:27.897Z,72.85
2016-03-22T09:50:27.916Z,71.7
2016-03-22T09:51:27.918Z,72.65
2016-03-22T09:52:27.968Z,72.94
2016-03-22T09:53:28.565Z,72.46
2016-03-22T09:54:27.988Z,73.93
2016-03-22T09:55:40.774Z,73.89
2016-03-22T09:56:28.385Z,73.22
2016-03-22T09:57:28.060Z,75.13
2016-03-22T09:58:28.671Z,75.99
2016-03-22T09:59:28.112Z,75.04
2016-03-22T10:00:28.193Z,73.13
2016-03-22T10:01:28.148Z,71.89
2016-03-22T10:02:28.135Z,71.42
2016-03-22T10:03:40.904Z,70.56
2016-03-22T10:04:28.187Z,70.94
2016-03-22T10:05:28.223Z,71.26
2016-03-22T10:06:28.225Z,69.64
2016-03-22T10:07:28.258Z,68.78
2016-03-22T10:08:28.277Z,68.24
2016-03-22T10:09:28.311Z,67.2
2016-03-22T10:10:28.532Z,68.02
2016-03-22T10:11:28.363Z,67.2
2016-03-22T10:12:28.366Z,66.53
2016-03-22T10:13:28.587Z,65.2
2016-03-22T10:14:28.387Z,63.89
2016-03-22T10:15:28.436Z,63.7
2016-03-22T10:16:28.470Z,64.85
2016-03-22T10:17:28.457Z,63.89
2016-03-22T10:18:34.772Z,63.8
2016-03-22T10:19:28.525Z,65.52
2016-03-22T10:20:28.527Z,65.99
2016-03-22T10:21:28.561Z,66.28
2016-03-22T10:22:28.564Z,65.42
2016-03-22T10:23:28.598Z,67.1
2016-03-22T10:24:28.601Z,67.29
2016-03-22T10:25:28.651Z,67.29
2016-03-22T10:26:35.013Z,66.88
2016-03-22T10:27:34.937Z,67.8
2016-03-22T10:28:28.721Z,68.18
2016-03-22T10:29:28.740Z,69.76
2016-03-22T10:30:28.804Z,69.95
2016-03-22T10:31:28.776Z,71.19
2016-03-22T10:32:28.795Z,72.33
2016-03-22T10:33:28.797Z,72.39
2016-03-22T10:34:28.831Z,75.05
2016-03-22T10:35:28.849Z,73.72
2016-03-22T10:36:28.884Z,72.96
2016-03-22T10:37:28.901Z,73.91
2016-03-22T10:38:28.920Z,74.87
2016-03-22T10:39:28.970Z,74.77
2016-03-22T10:40:28.941Z,73.85
2016-03-22T10:41:28.958Z,73.47
2016-03-22T10:42:41.727Z,71.38
2016-03-22T10:43:28.995Z,69.51
2016-03-22T10:44:48.233Z,70.08
2016-03-22T10:45:29.673Z,69.23
2016-03-22T10:46:29.066Z,67.55
2016-03-22T10:47:41.819Z,67.45
2016-03-22T10:48:29.228Z,67.35
2016-03-22T10:49:29.137Z,68.3
2016-03-22T10:50:29.202Z,69.68
2016-03-22T10:51:29.173Z,71.3
2016-03-22T10:52:29.285Z,71.45
2016-03-22T10:53:29.226Z,71.26
2016-03-22T10:54:29.229Z,73.07
2016-03-22T10:55:35.528Z,72.41
2016-03-22T10:56:29.249Z,71.93
2016-03-22T10:57:41.877Z,72.02
2016-03-22T10:58:29.317Z,71.83
2016-03-22T10:59:29.336Z,73.74
2016-03-22T11:00:29.338Z,74.98
2016-03-22T11:01:29.528Z,75.89
2016-03-22T11:02:29.376Z,77.61
2016-03-22T11:03:29.422Z,75.04
2016-03-22T11:04:35.685Z,74.65
2016-03-22T11:05:48.634Z,74.84
2016-03-22T11:06:29.458Z,74.69
2016-03-22T11:07:29.488Z,74.21
2016-03-22T11:08:29.500Z,73.83
2016-03-22T11:09:29.516Z,73.3
2016-03-22T11:10:29.517Z,72.34
2016-03-22T11:11:29.564Z,71.81
2016-03-22T11:12:29.580Z,72.09
2016-03-22T11:13:35.846Z,71.91
2016-03-22T11:14:35.880Z,68.85
2016-03-22T11:15:29.617Z,67.52
2016-03-22T11:16:29.664Z,67.42
2016-03-22T11:17:35.948Z,68.18
2016-03-22T11:18:29.669Z,68.28
2016-03-22T11:19:29.717Z,69.48
2016-03-22T11:20:29.751Z,71.39
2016-03-22T11:21:29.754Z,72.34
2016-03-22T11:22:29.787Z,71.36
2016-03-22T11:23:29.805Z,70.78
2016-03-22T11:24:31.230Z,70.08
2016-03-22T11:25:29.826Z,71.32
2016-03-22T11:26:29.845Z,73.57
2016-03-22T11:27:29.879Z,74.71
2016-03-22T11:28:31.318Z,75.76
2016-03-22T11:29:42.650Z,77.28
2016-03-22T11:30:29.933Z,78.1
2016-03-22T11:31:29.968Z,79.38
2016-03-22T11:32:29.970Z,79.38
2016-03-22T11:33:29.989Z,79.38
2016-03-22T11:34:30.616Z,76.04
2016-03-22T11:35:30.025Z,76.23
2016-03-22T11:36:30.044Z,75.99
2016-03-22T11:37:30.078Z,73.41
2016-03-22T11:38:30.095Z,72.46
2016-03-22T11:39:30.129Z,72.37
2016-03-22T11:40:30.742Z,71.93
2016-03-22T11:41:30.150Z,71.83
2016-03-22T11:42:49.388Z,70.06
2016-03-22T11:43:30.188Z,69.77
2016-03-22T11:44:30.252Z,70.12
2016-03-22T11:45:30.239Z,70.02
2016-03-22T11:46:30.274Z,69.89
2016-03-22T11:47:30.291Z,70.84
2016-03-22T11:48:30.326Z,71.98
2016-03-22T11:49:49.546Z,71.95
2016-03-22T11:50:30.332Z,72.14
2016-03-22T11:51:30.396Z,73.28
2016-03-22T11:52:30.383Z,74.62
2016-03-22T11:53:31.010Z,73.95
2016-03-22T11:54:30.420Z,74.04
2016-03-22T11:55:30.438Z,74.9
2016-03-22T11:56:30.473Z,73.1
2016-03-22T11:57:30.490Z,73.28
2016-03-22T11:58:30.712Z,74.62
2016-03-22T11:59:30.543Z,73.47
2016-03-22T12:00:30.561Z,74.99
2016-03-22T12:01:30.595Z,73.66
2016-03-22T12:02:30.598Z,72.46
2016-03-22T12:03:30.600Z,71.32
2016-03-22T12:04:30.603Z,72.17
2016-03-22T12:05:30.840Z,71.7
2016-03-22T12:06:30.670Z,71.61
2016-03-22T12:07:30.689Z,72.94
2016-03-22T12:08:30.707Z,72.56
2016-03-22T12:09:43.461Z,72.62
2016-03-22T12:10:30.947Z,74.46
2016-03-22T12:11:30.763Z,73.66
2016-03-22T12:12:30.781Z,73.85
2016-03-22T12:13:30.814Z,74.43
2016-03-22T12:14:43.552Z,74.52
2016-03-22T12:15:30.836Z,73.85
2016-03-22T12:16:30.869Z,74.62
2016-03-22T12:17:30.888Z,74.99
2016-03-22T12:18:30.921Z,73.66
2016-03-22T12:19:37.191Z,74.62
2016-03-22T12:20:30.943Z,73.85
2016-03-22T12:21:30.977Z,73.95
2016-03-22T12:22:30.996Z,74.71
2016-03-22T12:23:30.998Z,75.28
2016-03-22T12:24:31.032Z,73.66
2016-03-22T12:25:31.051Z,75.19
2016-03-22T12:26:31.068Z,74.8
2016-03-22T12:27:31.070Z,74.9
2016-03-22T12:28:43.870Z,75.72
2016-03-22T12:29:43.889Z,77.91
2016-03-22T12:30:31.157Z,77.34
2016-03-22T12:31:31.145Z,77.05
2016-03-22T12:32:56.850Z,76.96
2016-03-22T12:33:37.478Z,77.05
2016-03-22T12:34:31.214Z,77.19
2016-03-22T12:35:31.234Z,76.81
2016-03-22T12:36:31.955Z,78
2016-03-22T12:37:57.003Z,79.24
2016-03-22T12:38:40.914Z,78.86
2016-03-22T12:39:40.931Z,78.86
2016-03-22T12:40:40.950Z,79.24
2016-03-22T12:41:40.969Z,79.33
2016-03-22T12:42:40.955Z,79.05
2016-03-22T12:43:42.411Z,79.72
2016-03-22T12:44:40.991Z,79.43
2016-03-22T12:45:53.823Z,79.24
2016-03-22T12:46:41.060Z,79.81
2016-03-22T12:48:00.281Z,80.19
2016-03-22T12:48:41.113Z,80.66
2016-03-22T12:49:41.099Z,80.19
2016-03-22T12:50:41.118Z,80.19
2016-03-22T12:51:41.152Z,79.05
2016-03-22T12:52:41.186Z,80.15
2016-03-22T12:53:41.188Z,79.14
2016-03-22T12:54:41.221Z,79.01
2016-03-22T12:55:41.241Z,79.14
2016-03-22T12:56:54.087Z,79.11
2016-03-22T12:57:41.262Z,79.11
2016-03-22T12:58:41.357Z,80.15
2016-03-22T12:59:54.032Z,80.05
2016-03-22T13:00:41.409Z,80.91
2016-03-22T13:01:55.006Z,82.24
2016-03-22T13:02:41.353Z,82.15
2016-03-22T13:03:41.371Z,82.62
2016-03-22T13:04:41.405Z,83.67
2016-03-22T13:05:42.017Z,84.14
2016-03-22T13:06:41.426Z,85.62
2016-03-22T13:07:54.167Z,86.29
2016-03-22T13:08:41.468Z,86.38
2016-03-22T13:09:41.486Z,87.34
2016-03-22T13:10:42.114Z,87.34
2016-03-22T13:11:54.288Z,87.52
2016-03-22T13:12:41.541Z,87.24
2016-03-22T13:13:41.622Z,85.72
2016-03-22T13:14:42.171Z,85.19
2016-03-22T13:16:12.893Z,84.81
2016-03-22T13:16:43.021Z,84.43